Celle Army, Germany

2:48 PM CEST on August 28, 2015 (GMT +0200)
Celle Army | | Change Station
CLOSE
Current Station
Airport
Location: Celle,
Elevation: 171 ft
Nearby Weather Stations

Elev 171 ft 52.60 °N, 10.03 °E | Updated 28 minutes ago

Scattered Clouds
Scattered Clouds
64 °F
Feels Like 64 °F
N
9
Wind Variable Wind from West

Today
High -- | Low -- °F
--% Chance of Precip.
Yesterday
High -- | Low -- °F
Precip. -- in
6:23 AM 8:18 PM
Waxing Gibbous, 98% visible
Pressure 30.06 in
Visibility 6.2 miles
Clouds Scattered Clouds 2800 ft
Dew Point 52 °F
Humidity 64%
Rainfall 0.00 in
Snow Depth Not available.
UV 5 out of 12
Pollen Not available.
Air Quality Not available.
Flu Activity Not available.
METAR ETHC 281220Z 26008KT 9999 SCT028 18/11 Q1018 BLU+
Pressure 30.06 in
Visibility 6.2 miles
Clouds Scattered Clouds 2800 ft
Dew Point 52 °F
Humidity 64%
Rainfall 0.00 in
Snow Depth Not available.
UV 5 out of 12
Pollen Not available.
Air Quality Not available.
Flu Activity Not available.
METAR ETHC 281220Z 26008KT 9999 SCT028 18/11 Q1018 BLU+

10-Day Weather Forecast

×

Almanac

Astronomy

Aug. 28, 2015 Rise Set
Actual Time
Civil Twilight
Nautical Twilight
Astronomical Twilight
Moon
Length of Visible Light
Length of Day
Tomorrow will be .
, % of the Moon is Illuminated

Today's Extremes

Country Highs Country Lows

Community

WunderPhotos

Upload Photos

1,850,373 photos uploaded!

WunderBlogs® & News

Nearby

Air Quality

  Air Quality AQ Index Pollutant
Not available.

Snow Depth

Station Depth Elevation

Earthquake Activity

City Distance Mag. Time & Date
Minimum magnitude displayed is 2.5.

Coastal Water Temperatures

Place Temperature

Stations

Nearby Weather Stations

Station Location Temp. Windchill Dew Point Humidity Wind Precip. Elev Updated Type